createdAt,value
2022-08-02T00:00:19.115Z,0.00
2022-08-02T00:01:19.152Z,0.00
2022-08-02T00:02:19.103Z,0.00
2022-08-02T00:03:19.073Z,0.00
2022-08-02T00:04:19.072Z,0.00
2022-08-02T00:05:19.048Z,0.00
2022-08-02T00:06:19.034Z,0.00
2022-08-02T00:07:19.037Z,0.00
2022-08-02T00:08:19.019Z,0.00
2022-08-02T00:09:19.013Z,0.00
2022-08-02T00:10:18.990Z,0.00
2022-08-02T00:11:18.975Z,0.00
2022-08-02T00:12:18.968Z,0.00
2022-08-02T00:13:18.956Z,0.00
2022-08-02T00:14:18.961Z,0.00
2022-08-02T00:15:18.940Z,0.00
2022-08-02T00:16:18.928Z,0.00
2022-08-02T00:17:18.910Z,0.00
2022-08-02T00:18:18.907Z,0.00
2022-08-02T00:19:18.912Z,0.00
2022-08-02T00:20:18.877Z,0.00
2022-08-02T00:21:18.874Z,0.00
2022-08-02T00:22:18.855Z,0.00
2022-08-02T00:23:18.841Z,0.00
2022-08-02T00:24:30.155Z,0.00
2022-08-02T00:25:19.835Z,0.00
2022-08-02T00:26:18.818Z,0.00
2022-08-02T00:27:18.803Z,0.00
2022-08-02T00:28:26.938Z,0.00
2022-08-02T00:29:19.773Z,0.00
2022-08-02T00:30:18.779Z,0.00
2022-08-02T00:31:18.765Z,0.00
2022-08-02T00:32:18.742Z,0.00
2022-08-02T00:33:18.737Z,0.00
2022-08-02T00:34:30.254Z,0.00
2022-08-02T00:35:19.755Z,0.00
2022-08-02T00:36:18.713Z,0.00
2022-08-02T00:37:18.692Z,0.00
2022-08-02T00:38:18.697Z,0.00
2022-08-02T00:39:33.666Z,0.00
2022-08-02T00:40:19.679Z,0.00
2022-08-02T00:41:18.663Z,0.00
2022-08-02T00:42:18.632Z,0.00
2022-08-02T00:43:18.627Z,0.00
2022-08-02T00:44:18.608Z,0.00
2022-08-02T00:45:18.614Z,0.00
2022-08-02T00:46:18.584Z,0.00
2022-08-02T00:47:19.509Z,0.00
2022-08-02T00:48:18.570Z,0.00
2022-08-02T00:49:18.591Z,0.00
2022-08-02T00:50:18.540Z,0.00
2022-08-02T00:51:18.554Z,0.00
2022-08-02T00:52:18.524Z,0.00
2022-08-02T00:53:18.512Z,0.00
2022-08-02T00:54:18.496Z,0.00
2022-08-02T00:55:18.756Z,0.00
2022-08-02T00:56:19.486Z,0.00
2022-08-02T00:57:18.468Z,0.00
2022-08-02T00:58:18.457Z,0.00
2022-08-02T00:59:18.527Z,0.00
2022-08-02T01:00:18.428Z,0.00
2022-08-02T01:01:18.467Z,0.00
2022-08-02T01:02:18.542Z,0.00
2022-08-02T01:03:18.393Z,0.00
2022-08-02T01:04:18.382Z,0.00
2022-08-02T01:05:19.379Z,0.00
2022-08-02T01:06:18.377Z,0.00
2022-08-02T01:07:18.348Z,0.00
2022-08-02T01:08:18.339Z,0.00
2022-08-02T01:09:18.332Z,0.00
2022-08-02T01:10:18.327Z,0.00
2022-08-02T01:11:18.317Z,0.00
2022-08-02T01:12:18.300Z,0.00
2022-08-02T01:13:18.286Z,0.00
2022-08-02T01:14:18.269Z,0.00
2022-08-02T01:15:18.265Z,0.00
2022-08-02T01:16:18.266Z,0.00
2022-08-02T01:17:18.233Z,0.00
2022-08-02T01:18:18.231Z,0.00
2022-08-02T01:19:18.211Z,0.00
2022-08-02T01:20:18.211Z,0.00
2022-08-02T01:21:18.218Z,0.00
2022-08-02T01:22:18.186Z,0.00
2022-08-02T01:23:18.812Z,0.00
2022-08-02T01:24:18.163Z,0.00
2022-08-02T01:25:18.150Z,0.00
2022-08-02T01:26:18.156Z,0.00
2022-08-02T01:27:18.123Z,0.00
2022-08-02T01:28:18.115Z,0.00
2022-08-02T01:29:18.096Z,0.00
2022-08-02T01:30:18.094Z,0.00
2022-08-02T01:31:18.095Z,0.00
2022-08-02T01:32:18.077Z,0.00
2022-08-02T01:33:18.066Z,0.00
2022-08-02T01:34:18.066Z,0.00
2022-08-02T01:35:18.026Z,0.00
2022-08-02T01:36:18.041Z,0.00
2022-08-02T01:37:18.011Z,0.00
2022-08-02T01:38:17.994Z,0.00
2022-08-02T01:39:26.969Z,0.00
2022-08-02T01:40:18.977Z,0.00
2022-08-02T01:41:17.982Z,0.00
2022-08-02T01:42:17.954Z,0.00
2022-08-02T01:43:17.962Z,0.00
2022-08-02T01:44:17.944Z,0.00
2022-08-02T01:45:18.912Z,0.00
2022-08-02T01:46:17.923Z,0.00
2022-08-02T01:47:17.893Z,0.00
2022-08-02T01:48:17.880Z,0.00
2022-08-02T01:49:17.954Z,0.00
2022-08-02T01:50:17.877Z,0.00
2022-08-02T01:51:17.866Z,0.00
2022-08-02T01:52:17.842Z,0.00
2022-08-02T01:53:17.825Z,0.00
2022-08-02T01:54:17.819Z,0.00
2022-08-02T01:55:18.668Z,0.00
2022-08-02T01:56:17.810Z,0.00
2022-08-02T01:57:17.777Z,0.00
2022-08-02T01:58:17.775Z,0.00
2022-08-02T01:59:17.756Z,0.00
2022-08-02T02:00:17.747Z,0.00
2022-08-02T02:01:18.659Z,0.00
2022-08-02T02:02:17.737Z,0.00
2022-08-02T02:03:17.718Z,0.00
2022-08-02T02:04:17.706Z,0.00
2022-08-02T02:05:17.690Z,0.00
2022-08-02T02:06:17.707Z,0.00
2022-08-02T02:07:17.675Z,0.00
2022-08-02T02:08:27.317Z,0.00
2022-08-02T02:09:18.642Z,0.00
2022-08-02T02:10:17.636Z,0.00
2022-08-02T02:12:05.799Z,0.00
2022-08-02T02:12:18.924Z,0.00
2022-08-02T02:13:17.612Z,0.00
2022-08-02T02:14:17.597Z,0.00
2022-08-02T02:15:17.588Z,0.00
2022-08-02T02:16:17.590Z,0.00
2022-08-02T02:18:11.982Z,0.00
2022-08-02T02:18:18.549Z,0.00
2022-08-02T02:19:20.888Z,0.00
2022-08-02T02:20:17.526Z,0.00
2022-08-02T02:21:17.523Z,0.00
2022-08-02T02:22:17.506Z,0.00
2022-08-02T02:23:17.493Z,0.00
2022-08-02T02:24:18.521Z,0.00
2022-08-02T02:25:17.495Z,0.00
2022-08-02T02:26:17.538Z,0.00
2022-08-02T02:27:18.442Z,0.00
2022-08-02T02:28:17.439Z,0.00
2022-08-02T02:29:17.428Z,0.00
2022-08-02T02:30:17.435Z,0.00
2022-08-02T02:31:17.397Z,0.00
2022-08-02T02:32:17.394Z,0.00
2022-08-02T02:33:17.376Z,0.00
2022-08-02T02:34:17.367Z,0.00
2022-08-02T02:35:17.356Z,0.00
2022-08-02T02:36:17.362Z,0.00
2022-08-02T02:37:17.339Z,0.00
2022-08-02T02:38:17.320Z,0.00
2022-08-02T02:39:17.318Z,0.00
2022-08-02T02:40:17.309Z,0.00
2022-08-02T02:41:17.307Z,0.00
2022-08-02T02:42:17.282Z,0.00
2022-08-02T02:43:17.269Z,0.00
2022-08-02T02:44:17.264Z,0.00
2022-08-02T02:45:17.241Z,0.00
2022-08-02T02:46:17.249Z,0.00
2022-08-02T02:47:17.222Z,0.00
2022-08-02T02:48:17.205Z,0.00
2022-08-02T02:49:17.219Z,0.00
2022-08-02T02:50:17.181Z,0.00
2022-08-02T02:51:17.183Z,0.00
2022-08-02T02:52:17.157Z,0.00
2022-08-02T02:53:17.146Z,0.00
2022-08-02T02:54:30.975Z,0.00
2022-08-02T02:55:18.129Z,0.00
2022-08-02T02:56:17.132Z,0.00
2022-08-02T02:57:17.102Z,0.00
2022-08-02T02:58:17.092Z,0.00
2022-08-02T02:59:17.079Z,0.00
2022-08-02T03:00:17.079Z,0.00
2022-08-02T03:01:17.127Z,0.00
2022-08-02T03:02:17.061Z,0.00
2022-08-02T03:03:17.035Z,0.00
2022-08-02T03:04:17.025Z,0.00
2022-08-02T03:05:17.022Z,0.00
2022-08-02T03:06:17.020Z,0.00
2022-08-02T03:07:16.990Z,0.00
2022-08-02T03:08:16.992Z,0.00
2022-08-02T03:09:16.976Z,0.00
2022-08-02T03:10:16.966Z,0.00
2022-08-02T03:11:16.971Z,0.00
2022-08-02T03:12:20.103Z,0.00
2022-08-02T03:13:16.925Z,0.00
2022-08-02T03:14:16.915Z,0.00
2022-08-02T03:15:16.904Z,0.00
2022-08-02T03:16:16.908Z,0.00
2022-08-02T03:17:16.888Z,0.00
2022-08-02T03:18:16.872Z,0.00
2022-08-02T03:19:16.876Z,0.00
2022-08-02T03:20:16.884Z,0.00
2022-08-02T03:21:16.853Z,0.00
2022-08-02T03:22:16.835Z,0.00
2022-08-02T03:23:16.817Z,0.00
2022-08-02T03:24:16.811Z,0.00
2022-08-02T03:25:17.792Z,0.00
2022-08-02T03:26:16.795Z,0.00
2022-08-02T03:27:16.776Z,0.00
2022-08-02T03:28:16.765Z,0.00
2022-08-02T03:29:16.754Z,0.00
2022-08-02T03:30:16.745Z,0.00
2022-08-02T03:31:16.739Z,0.00
2022-08-02T03:32:16.721Z,0.00
2022-08-02T03:33:16.702Z,0.00
2022-08-02T03:34:16.699Z,0.00
2022-08-02T03:35:22.848Z,0.00
2022-08-02T03:36:17.686Z,0.00
2022-08-02T03:37:16.666Z,0.00
2022-08-02T03:38:16.659Z,0.00
2022-08-02T03:39:16.643Z,0.00
2022-08-02T03:40:16.628Z,0.00
2022-08-02T03:41:16.635Z,0.00
2022-08-02T03:42:16.606Z,0.00
2022-08-02T03:43:16.593Z,0.00
2022-08-02T03:44:16.590Z,0.00
2022-08-02T03:45:16.580Z,0.00
2022-08-02T03:46:16.581Z,0.00
2022-08-02T03:47:16.550Z,0.00
2022-08-02T03:48:30.541Z,0.00
2022-08-02T03:49:17.562Z,0.00
2022-08-02T03:50:16.541Z,0.00
2022-08-02T03:51:16.526Z,0.00
2022-08-02T03:52:16.501Z,0.00
2022-08-02T03:53:19.914Z,0.00
2022-08-02T03:54:16.482Z,0.00
2022-08-02T03:55:16.462Z,0.00
2022-08-02T03:56:16.463Z,0.00
2022-08-02T03:57:16.447Z,0.00
2022-08-02T03:58:16.427Z,0.00
2022-08-02T03:59:16.426Z,0.00
2022-08-02T04:00:16.404Z,0.00
2022-08-02T04:01:16.640Z,0.00
2022-08-02T04:02:16.390Z,0.00
2022-08-02T04:03:19.837Z,0.00
2022-08-02T04:04:16.364Z,0.00
2022-08-02T04:05:16.345Z,0.00
2022-08-02T04:06:16.352Z,0.00
2022-08-02T04:08:02.435Z,0.00
2022-08-02T04:08:37.100Z,0.00
2022-08-02T04:09:17.299Z,0.00
2022-08-02T04:10:16.296Z,0.00
2022-08-02T04:11:16.301Z,0.00
2022-08-02T04:12:16.275Z,0.00
2022-08-02T04:13:16.256Z,0.00
2022-08-02T04:14:16.243Z,0.00
2022-08-02T04:15:16.237Z,0.00
2022-08-02T04:16:16.242Z,0.00
2022-08-02T04:17:16.209Z,0.00
2022-08-02T04:18:16.196Z,0.00
2022-08-02T04:19:16.194Z,0.00
2022-08-02T04:20:16.176Z,0.00
2022-08-02T04:21:16.188Z,0.00
2022-08-02T04:22:16.153Z,5.62
2022-08-02T04:23:16.142Z,5.62
2022-08-02T04:24:18.628Z,5.62
2022-08-02T04:25:17.537Z,5.62
2022-08-02T04:26:16.136Z,5.62
2022-08-02T04:27:49.278Z,5.62
2022-08-02T04:28:18.578Z,5.62
2022-08-02T04:29:16.082Z,11.25
2022-08-02T04:30:16.061Z,11.25
2022-08-02T04:31:16.077Z,11.25
2022-08-02T04:32:16.048Z,11.25
2022-08-02T04:33:16.034Z,11.25
2022-08-02T04:34:16.015Z,11.25
2022-08-02T04:35:20.211Z,11.25
2022-08-02T04:36:16.000Z,11.25
2022-08-02T04:37:17.005Z,11.25
2022-08-02T04:38:16.073Z,11.25
2022-08-02T04:39:15.967Z,11.25
2022-08-02T04:40:15.948Z,11.25
2022-08-02T04:41:15.937Z,11.25
2022-08-02T04:42:15.942Z,11.25
2022-08-02T04:43:15.926Z,11.25
2022-08-02T04:44:15.901Z,11.25
2022-08-02T04:45:16.567Z,11.25
2022-08-02T04:46:15.885Z,11.25
2022-08-02T04:47:15.891Z,11.25
2022-08-02T04:48:15.856Z,11.25
2022-08-02T04:49:15.882Z,11.25
2022-08-02T04:50:15.838Z,11.25
2022-08-02T04:51:15.831Z,11.25
2022-08-02T04:52:15.830Z,11.25
2022-08-02T04:53:15.817Z,11.25
2022-08-02T04:54:15.789Z,11.25
2022-08-02T04:55:15.778Z,11.25
2022-08-02T04:56:15.771Z,16.88
2022-08-02T04:57:15.774Z,16.88
2022-08-02T04:58:39.381Z,16.88
2022-08-02T04:59:16.747Z,16.88
2022-08-02T05:00:15.834Z,16.88
2022-08-02T05:01:15.783Z,22.50
2022-08-02T05:02:15.716Z,22.50
2022-08-02T05:03:15.692Z,22.50
2022-08-02T05:04:15.672Z,22.50
2022-08-02T05:05:15.671Z,22.50
2022-08-02T05:06:18.763Z,22.50
2022-08-02T05:07:15.656Z,22.50
2022-08-02T05:08:15.633Z,22.50
2022-08-02T05:09:15.622Z,22.50
2022-08-02T05:10:15.610Z,22.50
2022-08-02T05:11:15.595Z,22.50
2022-08-02T05:12:15.599Z,28.12
2022-08-02T05:13:15.579Z,28.12
2022-08-02T05:14:15.559Z,28.12
2022-08-02T05:15:15.548Z,28.12
2022-08-02T05:16:15.537Z,28.12
2022-08-02T05:17:15.547Z,33.75
2022-08-02T05:18:15.520Z,33.75
2022-08-02T05:19:15.511Z,33.75
2022-08-02T05:20:15.492Z,39.38
2022-08-02T05:21:15.521Z,39.38
2022-08-02T05:22:15.481Z,39.38
2022-08-02T05:23:15.466Z,39.38
2022-08-02T05:24:15.452Z,45.00
2022-08-02T05:25:15.442Z,45.00
2022-08-02T05:26:15.430Z,50.62
2022-08-02T05:27:17.154Z,50.62
2022-08-02T05:28:16.398Z,50.62
2022-08-02T05:29:15.391Z,50.62
2022-08-02T05:30:15.384Z,50.62
2022-08-02T05:31:15.374Z,50.62
2022-08-02T05:32:15.370Z,50.62
2022-08-02T05:33:15.345Z,50.62
2022-08-02T05:34:15.331Z,56.25
2022-08-02T05:35:15.330Z,56.25
2022-08-02T05:36:15.836Z,61.88
2022-08-02T05:37:15.313Z,67.50
2022-08-02T05:38:15.297Z,67.50
2022-08-02T05:39:19.091Z,73.12
2022-08-02T05:40:15.264Z,73.12
2022-08-02T05:41:15.265Z,73.12
2022-08-02T05:42:15.284Z,73.12
2022-08-02T05:43:15.240Z,78.75
2022-08-02T05:44:15.226Z,73.12
2022-08-02T05:45:15.210Z,73.12
2022-08-02T05:46:15.208Z,73.12
2022-08-02T05:47:15.200Z,78.75
2022-08-02T05:48:15.177Z,84.38
2022-08-02T05:49:15.284Z,84.38
2022-08-02T05:50:15.152Z,73.12
2022-08-02T05:51:15.141Z,50.62
2022-08-02T05:52:15.158Z,50.62
2022-08-02T05:53:15.119Z,73.12
2022-08-02T05:54:15.114Z,78.75
2022-08-02T05:55:15.103Z,56.25
2022-08-02T05:56:15.090Z,90.00
2022-08-02T05:57:15.086Z,95.62
2022-08-02T05:58:15.068Z,101.25
2022-08-02T05:59:15.052Z,101.25
2022-08-02T06:00:15.044Z,101.25
2022-08-02T06:01:15.116Z,101.25
2022-08-02T06:02:15.638Z,101.25
2022-08-02T06:03:16.012Z,123.75
2022-08-02T06:04:14.997Z,135.00
2022-08-02T06:05:14.987Z,45.00
2022-08-02T06:06:14.976Z,50.62
2022-08-02T06:07:14.973Z,67.50
2022-08-02T06:08:14.944Z,140.62
2022-08-02T06:09:14.934Z,174.38
2022-08-02T06:10:14.928Z,196.88
2022-08-02T06:11:14.911Z,202.50
2022-08-02T06:12:15.207Z,185.62
2022-08-02T06:13:14.918Z,180.00
2022-08-02T06:14:14.881Z,118.12
2022-08-02T06:15:14.869Z,129.38
2022-08-02T06:16:15.070Z,118.12
2022-08-02T06:17:14.859Z,123.75
2022-08-02T06:18:14.834Z,191.25
2022-08-02T06:19:14.829Z,202.50
2022-08-02T06:20:14.810Z,185.62
2022-08-02T06:22:31.402Z,157.50
2022-08-02T06:22:33.730Z,157.50
2022-08-02T06:23:15.778Z,163.12
2022-08-02T06:24:14.772Z,163.12
2022-08-02T06:25:51.081Z,163.12
2022-08-02T06:26:15.743Z,163.12
2022-08-02T06:27:14.747Z,157.50
2022-08-02T06:28:14.728Z,151.88
2022-08-02T06:29:14.709Z,146.25
2022-08-02T06:30:14.706Z,151.88
2022-08-02T06:31:14.687Z,151.88
2022-08-02T06:32:15.269Z,151.88
2022-08-02T06:33:14.692Z,151.88
2022-08-02T06:34:14.653Z,151.88
2022-08-02T06:35:14.645Z,151.88
2022-08-02T06:36:14.639Z,140.62
2022-08-02T06:37:14.640Z,129.38
2022-08-02T06:38:14.610Z,129.38
2022-08-02T06:39:14.598Z,135.00
2022-08-02T06:40:14.589Z,146.25
2022-08-02T06:41:14.583Z,146.25
2022-08-02T06:42:14.860Z,146.25
2022-08-02T06:43:14.552Z,146.25
2022-08-02T06:44:44.843Z,151.88
2022-08-02T06:45:15.530Z,151.88
2022-08-02T06:47:09.841Z,140.62
2022-08-02T06:47:15.524Z,129.38
2022-08-02T06:48:14.512Z,151.88
2022-08-02T06:49:14.611Z,157.50
2022-08-02T06:50:14.481Z,168.75
2022-08-02T06:51:14.471Z,180.00
2022-08-02T06:52:18.714Z,191.25
2022-08-02T06:53:14.448Z,219.38
2022-08-02T06:54:14.437Z,253.12
2022-08-02T06:55:14.423Z,275.62
2022-08-02T06:56:14.406Z,264.38
2022-08-02T06:57:14.419Z,258.75
2022-08-02T06:58:14.402Z,270.00
2022-08-02T06:59:14.479Z,281.25
2022-08-02T07:00:14.361Z,270.00
2022-08-02T07:01:14.426Z,253.12
2022-08-02T07:02:14.604Z,247.50
2022-08-02T07:03:14.327Z,230.62
2022-08-02T07:04:16.452Z,208.12
2022-08-02T07:05:14.305Z,196.88
2022-08-02T07:06:14.307Z,213.75
2022-08-02T07:07:14.293Z,213.75
2022-08-02T07:08:14.269Z,180.00
2022-08-02T07:09:22.199Z,157.50
2022-08-02T07:10:15.253Z,140.62
2022-08-02T07:11:14.239Z,140.62
2022-08-02T07:12:14.607Z,135.00
2022-08-02T07:13:14.214Z,135.00
2022-08-02T07:14:14.354Z,129.38
2022-08-02T07:15:14.205Z,135.00
2022-08-02T07:16:14.180Z,135.00
2022-08-02T07:17:14.184Z,129.38
2022-08-02T07:18:14.165Z,129.38
2022-08-02T07:19:14.148Z,123.75
2022-08-02T07:20:14.141Z,129.38
2022-08-02T07:21:14.135Z,129.38
2022-08-02T07:22:14.312Z,140.62
2022-08-02T07:23:14.110Z,140.62
2022-08-02T07:24:14.091Z,146.25
2022-08-02T07:25:14.094Z,286.88
2022-08-02T07:26:14.068Z,298.12
2022-08-02T07:27:14.100Z,191.25
2022-08-02T07:28:22.128Z,140.62
2022-08-02T07:29:15.035Z,135.00
2022-08-02T07:30:14.030Z,135.00
2022-08-02T07:31:14.025Z,157.50
2022-08-02T07:32:14.468Z,151.88
2022-08-02T07:33:37.724Z,118.12
2022-08-02T07:34:14.977Z,129.38
2022-08-02T07:35:14.558Z,129.38
2022-08-02T07:36:17.024Z,146.25
2022-08-02T07:37:35.992Z,208.12
2022-08-02T07:38:14.938Z,230.62
2022-08-02T07:39:13.921Z,157.50
2022-08-02T07:40:15.051Z,241.88
2022-08-02T07:41:14.910Z,236.25
2022-08-02T07:42:14.286Z,230.62
2022-08-02T07:43:13.887Z,511.88
2022-08-02T07:44:13.873Z,697.50
2022-08-02T07:45:13.880Z,455.62
2022-08-02T07:46:13.848Z,275.62
2022-08-02T07:47:14.404Z,286.88
2022-08-02T07:48:13.848Z,286.88
2022-08-02T07:49:13.924Z,275.62
2022-08-02T07:50:13.812Z,247.50
2022-08-02T07:51:17.216Z,151.88
2022-08-02T07:52:14.289Z,146.25
2022-08-02T07:53:13.768Z,151.88
2022-08-02T07:54:16.832Z,151.88
2022-08-02T07:55:13.751Z,168.75
2022-08-02T07:56:13.732Z,174.38
2022-08-02T07:57:13.738Z,168.75
2022-08-02T07:58:13.916Z,151.88
2022-08-02T07:59:13.889Z,157.50
2022-08-02T08:00:13.689Z,168.75
2022-08-02T08:01:13.705Z,157.50
2022-08-02T08:02:14.081Z,168.75
2022-08-02T08:03:13.656Z,168.75
2022-08-02T08:04:13.644Z,168.75
2022-08-02T08:05:13.641Z,163.12
2022-08-02T08:06:13.621Z,157.50
2022-08-02T08:07:13.637Z,146.25
2022-08-02T08:08:17.399Z,168.75
2022-08-02T08:09:13.596Z,225.00
2022-08-02T08:10:13.583Z,180.00
2022-08-02T08:11:13.582Z,174.38
2022-08-02T08:12:14.129Z,258.75
2022-08-02T08:13:13.544Z,270.00
2022-08-02T08:14:16.864Z,157.50
2022-08-02T08:15:13.530Z,236.25
2022-08-02T08:16:13.520Z,286.88
2022-08-02T08:17:13.512Z,348.75
2022-08-02T08:18:13.492Z,331.88
2022-08-02T08:19:13.621Z,180.00
2022-08-02T08:20:15.890Z,208.12
2022-08-02T08:21:13.458Z,281.25
2022-08-02T08:22:14.063Z,275.62
2022-08-02T08:23:13.434Z,236.25
2022-08-02T08:24:13.421Z,174.38
2022-08-02T08:25:13.413Z,253.12
2022-08-02T08:26:15.793Z,388.12
2022-08-02T08:27:13.432Z,540.00
2022-08-02T08:28:13.387Z,354.38
2022-08-02T08:29:13.364Z,168.75
2022-08-02T08:30:13.361Z,157.50
2022-08-02T08:31:13.351Z,157.50
2022-08-02T08:32:17.467Z,157.50
2022-08-02T08:33:14.321Z,151.88
2022-08-02T08:34:13.309Z,146.25
2022-08-02T08:35:13.305Z,151.88
2022-08-02T08:36:13.294Z,157.50
2022-08-02T08:37:18.116Z,157.50
2022-08-02T08:38:14.276Z,157.50
2022-08-02T08:39:13.249Z,157.50
2022-08-02T08:40:13.247Z,174.38
2022-08-02T08:41:14.228Z,298.12
2022-08-02T08:42:13.541Z,556.88
2022-08-02T08:43:13.228Z,568.12
2022-08-02T08:44:13.203Z,365.62
2022-08-02T08:45:13.182Z,241.88
2022-08-02T08:46:13.181Z,202.50
2022-08-02T08:47:13.161Z,213.75
2022-08-02T08:48:13.164Z,202.50
2022-08-02T08:49:13.203Z,196.88
2022-08-02T08:50:20.068Z,196.88
2022-08-02T08:51:14.122Z,196.88
2022-08-02T08:52:13.572Z,219.38
2022-08-02T08:53:13.825Z,360.00
2022-08-02T08:54:13.091Z,410.62
2022-08-02T08:55:13.071Z,320.62
2022-08-02T08:56:16.354Z,286.88
2022-08-02T08:57:13.720Z,253.12
2022-08-02T08:58:13.524Z,320.62
2022-08-02T08:59:13.027Z,517.50
2022-08-02T09:00:13.034Z,635.62
2022-08-02T09:01:13.139Z,1175.62
2022-08-02T09:02:17.860Z,1108.12
2022-08-02T09:03:13.997Z,1327.50
2022-08-02T09:04:12.981Z,1417.50
2022-08-02T09:05:12.969Z,1372.50
2022-08-02T09:06:12.953Z,1198.12
2022-08-02T09:07:12.949Z,703.12
2022-08-02T09:08:16.794Z,1164.38
2022-08-02T09:09:12.926Z,1141.88
2022-08-02T09:10:12.917Z,1119.38
2022-08-02T09:11:12.903Z,1282.50
2022-08-02T09:12:13.246Z,1254.38
2022-08-02T09:13:37.591Z,1456.88
2022-08-02T09:14:13.863Z,1344.38
2022-08-02T09:15:15.947Z,1198.12
2022-08-02T09:16:14.546Z,1310.62
2022-08-02T09:17:12.831Z,1203.75
2022-08-02T09:18:12.838Z,1237.50
2022-08-02T09:19:12.817Z,1411.88
2022-08-02T09:20:12.812Z,1153.12
2022-08-02T09:21:12.787Z,1631.25
2022-08-02T09:22:13.261Z,1496.25
2022-08-02T09:23:12.782Z,1389.38
2022-08-02T09:24:12.760Z,1389.38
2022-08-02T09:25:12.746Z,1338.75
2022-08-02T09:26:12.737Z,1164.38
2022-08-02T09:27:12.733Z,1040.62
2022-08-02T09:28:12.738Z,748.12
2022-08-02T09:29:12.712Z,191.25
2022-08-02T09:30:13.981Z,781.88
2022-08-02T09:31:12.691Z,663.75
2022-08-02T09:32:13.010Z,506.25
2022-08-02T09:33:12.687Z,258.75
2022-08-02T09:34:12.660Z,354.38
2022-08-02T09:35:12.648Z,253.12
2022-08-02T09:36:12.652Z,230.62
2022-08-02T09:37:12.627Z,315.00
2022-08-02T09:38:12.632Z,303.75
2022-08-02T09:39:12.605Z,292.50
2022-08-02T09:40:12.607Z,331.88
2022-08-02T09:41:12.590Z,281.25
2022-08-02T09:42:12.868Z,320.62
2022-08-02T09:43:12.571Z,393.75
2022-08-02T09:44:15.941Z,247.50
2022-08-02T09:45:12.547Z,455.62
2022-08-02T09:46:12.524Z,230.62
2022-08-02T09:47:12.520Z,315.00
2022-08-02T09:48:12.526Z,472.50
2022-08-02T09:49:12.579Z,348.75
2022-08-02T09:50:15.061Z,303.75
2022-08-02T09:51:12.474Z,286.88
2022-08-02T09:52:13.012Z,258.75
2022-08-02T09:53:12.472Z,264.38
2022-08-02T09:54:12.449Z,286.88
2022-08-02T09:55:12.439Z,219.38
2022-08-02T09:56:30.251Z,168.75
2022-08-02T09:57:13.408Z,168.75
2022-08-02T09:58:12.414Z,196.88
2022-08-02T09:59:12.394Z,286.88
2022-08-02T10:00:16.262Z,174.38
2022-08-02T10:01:13.438Z,1383.75
2022-08-02T10:02:17.050Z,202.50
2022-08-02T10:03:22.415Z,624.38
2022-08-02T10:04:20.559Z,1265.62
2022-08-02T10:05:13.323Z,1760.62
2022-08-02T10:06:12.314Z,1636.88
2022-08-02T10:07:12.312Z,1040.62
2022-08-02T10:08:12.311Z,421.88
2022-08-02T10:09:12.290Z,315.00
2022-08-02T10:10:12.282Z,292.50
2022-08-02T10:11:12.268Z,292.50
2022-08-02T10:12:12.613Z,303.75
2022-08-02T10:13:12.259Z,315.00
2022-08-02T10:14:13.230Z,337.50
2022-08-02T10:15:12.219Z,1524.38
2022-08-02T10:16:12.210Z,410.62
2022-08-02T10:17:12.206Z,1344.38
2022-08-02T10:18:29.048Z,1310.62
2022-08-02T10:19:13.176Z,371.25
2022-08-02T10:20:12.176Z,241.88
2022-08-02T10:21:12.165Z,281.25
2022-08-02T10:22:12.439Z,270.00
2022-08-02T10:23:12.167Z,258.75
2022-08-02T10:24:12.135Z,540.00
2022-08-02T10:25:12.123Z,236.25
2022-08-02T10:26:12.106Z,230.62
2022-08-02T10:27:12.157Z,281.25
2022-08-02T10:28:16.485Z,641.25
2022-08-02T10:29:12.085Z,1389.38
2022-08-02T10:30:12.070Z,1085.62
2022-08-02T10:31:12.056Z,573.75
2022-08-02T10:32:12.340Z,466.88
2022-08-02T10:33:12.047Z,1119.38
2022-08-02T10:34:12.022Z,1051.88
2022-08-02T10:35:19.564Z,1068.75
2022-08-02T10:36:13.007Z,1136.25
2022-08-02T10:37:11.997Z,978.75
2022-08-02T10:38:12.002Z,1158.75
2022-08-02T10:39:11.968Z,1108.12
2022-08-02T10:40:12.021Z,1006.88
2022-08-02T10:41:11.954Z,1029.38
2022-08-02T10:42:12.479Z,1338.75
2022-08-02T10:43:11.952Z,1541.25
2022-08-02T10:44:24.838Z,1462.50
2022-08-02T10:45:12.912Z,1535.62
2022-08-02T10:46:11.901Z,1698.75
2022-08-02T10:47:11.885Z,348.75
2022-08-02T10:48:11.901Z,568.12
2022-08-02T10:49:38.750Z,1816.88
2022-08-02T10:50:12.962Z,241.88
2022-08-02T10:51:11.851Z,230.62
2022-08-02T10:52:12.209Z,348.75
2022-08-02T10:53:11.845Z,545.62
2022-08-02T10:54:11.825Z,382.50
2022-08-02T10:55:14.737Z,1670.62
2022-08-02T10:56:11.794Z,1276.88
2022-08-02T10:57:15.087Z,1057.50
2022-08-02T10:58:11.784Z,838.12
2022-08-02T10:59:11.778Z,506.25
2022-08-02T11:00:11.755Z,360.00
2022-08-02T11:01:12.772Z,241.88
2022-08-02T11:02:12.020Z,315.00
2022-08-02T11:03:11.720Z,315.00
2022-08-02T11:04:11.727Z,286.88
2022-08-02T11:05:11.712Z,281.25
2022-08-02T11:06:25.250Z,286.88
2022-08-02T11:07:12.694Z,281.25
2022-08-02T11:08:11.672Z,247.50
2022-08-02T11:09:11.686Z,275.62
2022-08-02T11:10:11.662Z,264.38
2022-08-02T11:11:11.641Z,174.38
2022-08-02T11:12:11.880Z,168.75
2022-08-02T11:13:11.622Z,202.50
2022-08-02T11:14:11.632Z,270.00
2022-08-02T11:15:11.600Z,270.00
2022-08-02T11:16:12.199Z,180.00
2022-08-02T11:17:11.587Z,253.12
2022-08-02T11:18:11.578Z,174.38
2022-08-02T11:19:11.575Z,151.88
2022-08-02T11:20:11.562Z,151.88
2022-08-02T11:21:11.546Z,241.88
2022-08-02T11:22:11.762Z,247.50
2022-08-02T11:23:11.524Z,247.50
2022-08-02T11:24:11.530Z,253.12
2022-08-02T11:25:11.495Z,275.62
2022-08-02T11:26:11.617Z,438.75
2022-08-02T11:27:11.636Z,804.38
2022-08-02T11:28:11.466Z,708.75
2022-08-02T11:29:15.982Z,399.38
2022-08-02T11:30:11.449Z,163.12
2022-08-02T11:31:11.441Z,337.50
2022-08-02T11:32:11.732Z,258.75
2022-08-02T11:33:11.414Z,174.38
2022-08-02T11:34:11.425Z,236.25
2022-08-02T11:35:12.401Z,202.50
2022-08-02T11:36:11.398Z,163.12
2022-08-02T11:37:11.373Z,151.88
2022-08-02T11:38:11.375Z,146.25
2022-08-02T11:39:11.379Z,151.88
2022-08-02T11:40:18.969Z,151.88
2022-08-02T11:41:12.329Z,140.62
2022-08-02T11:42:11.819Z,146.25
2022-08-02T11:43:11.317Z,163.12
2022-08-02T11:44:11.312Z,236.25
2022-08-02T11:45:11.297Z,241.88
2022-08-02T11:46:12.285Z,236.25
2022-08-02T11:47:11.267Z,225.00
2022-08-02T11:48:11.258Z,213.75
2022-08-02T11:49:11.318Z,208.12
2022-08-02T11:50:11.247Z,196.88
2022-08-02T11:51:11.242Z,191.25
2022-08-02T11:52:11.758Z,185.62
2022-08-02T11:53:11.212Z,185.62
2022-08-02T11:54:11.208Z,185.62
2022-08-02T11:55:11.183Z,191.25
2022-08-02T11:56:11.183Z,196.88
2022-08-02T11:57:14.321Z,191.25
2022-08-02T11:58:12.169Z,180.00
2022-08-02T11:59:14.392Z,202.50
2022-08-02T12:00:11.131Z,208.12
2022-08-02T12:01:11.121Z,202.50
2022-08-02T12:02:11.466Z,163.12
2022-08-02T12:03:11.340Z,157.50
2022-08-02T12:04:11.118Z,151.88
2022-08-02T12:05:11.086Z,146.25
2022-08-02T12:06:16.382Z,163.12
2022-08-02T12:07:12.057Z,168.75
2022-08-02T12:08:11.050Z,163.12
2022-08-02T12:09:18.276Z,196.88
2022-08-02T12:10:12.026Z,202.50
2022-08-02T12:11:12.027Z,202.50
2022-08-02T12:12:11.268Z,208.12
2022-08-02T12:13:10.993Z,174.38
2022-08-02T12:14:11.002Z,208.12
2022-08-02T12:15:10.973Z,208.12
2022-08-02T12:16:10.970Z,202.50
2022-08-02T12:17:10.953Z,208.12
2022-08-02T12:18:10.948Z,208.12
2022-08-02T12:19:10.950Z,208.12
2022-08-02T12:20:10.920Z,196.88
2022-08-02T12:21:10.918Z,185.62
2022-08-02T12:22:11.231Z,180.00
2022-08-02T12:23:10.894Z,168.75
2022-08-02T12:24:10.893Z,174.38
2022-08-02T12:25:10.866Z,174.38
2022-08-02T12:26:16.333Z,174.38
2022-08-02T12:27:11.851Z,174.38
2022-08-02T12:28:14.374Z,174.38
2022-08-02T12:29:11.841Z,174.38
2022-08-02T12:30:10.824Z,168.75
2022-08-02T12:31:10.812Z,157.50
2022-08-02T12:32:11.097Z,151.88
2022-08-02T12:33:13.223Z,140.62
2022-08-02T12:34:10.804Z,140.62
2022-08-02T12:35:10.766Z,140.62
2022-08-02T12:36:10.762Z,135.00
2022-08-02T12:37:10.757Z,129.38
2022-08-02T12:38:10.736Z,129.38
2022-08-02T12:39:10.743Z,118.12
2022-08-02T12:40:10.716Z,101.25
2022-08-02T12:41:30.292Z,95.62
2022-08-02T12:42:12.040Z,95.62
2022-08-02T12:43:10.676Z,90.00
2022-08-02T12:44:10.678Z,84.38
2022-08-02T12:45:10.653Z,78.75
2022-08-02T12:46:10.648Z,78.75